Time;durP1;ratioP1;P1;durP2;ratioP2;P2;SDS_P1;SDS_P2;PMS_P1;PMS_P2;Temp;Humidity;BMP_temperature;BMP_pressure;BME280_temperature;BME280_humidity;BME280_pressure;Samples;Min_cycle;Max_cycle;Signal;HPM_P1;HPM_P2
2022/12/25 00:01:50;;;;;;;14.33;7.30;;;8.80;1.00;;;;;;5094519;28;20638;-87
2022/12/25 00:04:15;;;;;;;23.70;8.00;;;8.80;1.00;;;;;;5084425;28;20181;-87
2022/12/25 00:06:41;;;;;;;19.63;8.47;;;8.90;1.00;;;;;;5091069;28;20183;-87
2022/12/25 00:09:06;;;;;;;17.13;6.67;;;8.90;1.00;;;;;;5086566;28;20230;-88
2022/12/25 00:11:32;;;;;;;13.93;5.77;;;8.90;1.00;;;;;;5087035;28;20184;-87
2022/12/25 00:13:57;;;;;;;26.77;7.20;;;8.90;1.00;;;;;;5076974;28;20196;-87
2022/12/25 00:16:24;;;;;;;13.83;5.20;;;8.90;1.00;;;;;;5086726;28;20192;-87
2022/12/25 00:18:50;;;;;;;13.93;6.43;;;9.00;1.00;;;;;;5091024;28;20627;-87
2022/12/25 00:21:17;;;;;;;10.80;5.20;;;9.00;1.00;;;;;;5082642;28;20439;-87
2022/12/25 00:23:43;;;;;;;11.57;5.53;;;9.10;1.00;;;;;;5087963;28;20212;-86
2022/12/25 00:26:12;;;;;;;13.43;5.17;;;9.10;1.00;;;;;;5087093;28;20177;-87
2022/12/25 00:28:38;;;;;;;9.43;5.53;;;9.10;1.00;;;;;;5082959;28;20553;-87
2022/12/25 00:31:11;;;;;;;11.80;6.53;;;9.20;1.00;;;;;;5089814;28;20529;-87
2022/12/25 00:33:38;;;;;;;12.60;6.30;;;9.20;1.00;;;;;;5077556;28;20429;-87
2022/12/25 00:36:05;;;;;;;17.63;6.47;;;9.30;1.00;;;;;;5089647;28;20518;-87
2022/12/25 00:38:32;;;;;;;19.03;6.30;;;9.30;1.00;;;;;;5091576;28;21140;-87
2022/12/25 00:40:58;;;;;;;14.40;5.00;;;9.40;1.00;;;;;;5088101;28;20544;-87
2022/12/25 00:43:23;;;;;;;12.50;4.70;;;9.40;1.00;;;;;;5092718;28;20557;-87
2022/12/25 00:45:57;;;;;;;19.63;6.20;;;9.40;1.00;;;;;;5083772;28;20854;-87
2022/12/25 00:48:24;;;;;;;12.40;5.60;;;9.50;1.00;;;;;;5087256;28;20193;-88
2022/12/25 00:50:54;;;;;;;12.67;6.20;;;9.50;1.00;;;;;;5086552;28;20426;-87
2022/12/25 00:53:20;;;;;;;10.13;5.15;;;9.50;1.00;;;;;;5088449;28;20442;-88
2022/12/25 00:56:00;;;;;;;14.67;5.90;;;9.50;1.00;;;;;;5077358;28;20714;-88
2022/12/25 00:58:27;;;;;;;11.53;5.83;;;9.50;1.00;;;;;;5079197;28;20259;-88
2022/12/25 01:00:53;;;;;;;10.70;5.43;;;9.50;1.00;;;;;;5089769;28;20445;-86
2022/12/25 01:03:19;;;;;;;17.93;4.47;;;9.60;1.00;;;;;;5091069;28;20843;-87
2022/12/25 01:06:04;;;;;;;8.73;4.73;;;9.60;1.00;;;;;;5087705;28;20169;-87
2022/12/25 01:08:32;;;;;;;14.53;4.73;;;9.60;1.00;;;;;;5082393;28;20245;-87
2022/12/25 01:11:01;;;;;;;13.93;5.07;;;9.60;99.90;;;;;;5082439;28;20481;-86
2022/12/25 01:13:28;;;;;;;10.87;4.73;;;9.60;99.90;;;;;;5088968;28;20196;-87
2022/12/25 01:15:54;;;;;;;9.53;5.57;;;9.60;1.00;;;;;;5081624;28;20443;-87
2022/12/25 01:18:22;;;;;;;23.07;4.87;;;9.50;1.00;;;;;;5072333;28;20450;-86
2022/12/25 01:20:48;;;;;;;10.43;5.37;;;9.50;1.00;;;;;;5077539;28;20181;-87
2022/12/25 01:23:14;;;;;;;13.43;5.53;;;9.60;1.00;;;;;;5085612;28;21004;-87
2022/12/25 01:25:40;;;;;;;10.10;5.37;;;9.60;1.00;;;;;;5089466;28;20180;-87
2022/12/25 01:28:05;;;;;;;12.93;5.50;;;9.60;1.00;;;;;;5075518;28;20696;-87
2022/12/25 01:30:31;;;;;;;19.63;7.57;;;9.60;1.00;;;;;;5081010;28;20509;-87
2022/12/25 01:32:57;;;;;;;15.07;5.70;;;9.70;1.00;;;;;;5080342;28;20218;-87
2022/12/25 01:35:23;;;;;;;15.07;5.10;;;9.60;1.00;;;;;;5090278;28;20425;-87
2022/12/25 01:37:49;;;;;;;12.53;5.23;;;9.70;1.00;;;;;;5080735;28;20204;-87
2022/12/25 01:40:15;;;;;;;12.97;4.97;;;9.70;1.00;;;;;;5080365;28;20241;-87
2022/12/25 01:42:41;;;;;;;11.33;5.07;;;9.70;1.00;;;;;;5075454;28;20459;-87
2022/12/25 01:45:36;;;;;;;12.93;5.07;;;9.70;1.00;;;;;;5088817;28;20183;-88
2022/12/25 01:48:08;;;;;;;11.40;4.90;;;9.70;1.00;;;;;;5083214;28;20288;-87
2022/12/25 01:50:36;;;;;;;12.90;4.93;;;9.70;99.90;;;;;;5075076;28;20438;-87
2022/12/25 01:53:03;;;;;;;15.63;7.23;;;9.70;99.90;;;;;;5078638;28;20438;-87
2022/12/25 01:55:29;;;;;;;18.20;5.67;;;9.70;99.90;;;;;;5079178;28;20430;-87
2022/12/25 01:57:54;;;;;;;16.23;5.33;;;9.70;99.90;;;;;;5084744;28;20560;-88
2022/12/25 02:00:20;;;;;;;12.83;5.10;;;9.70;99.90;;;;;;5088433;28;20438;-87
2022/12/25 02:02:47;;;;;;;17.33;6.70;;;9.70;99.90;;;;;;5079215;28;20844;-86
2022/12/25 02:05:26;;;;;;;17.80;5.80;;;9.70;99.90;;;;;;5075734;28;20636;-87
2022/12/25 02:07:53;;;;;;;12.23;5.57;;;9.60;99.90;;;;;;5085500;28;20531;-87
2022/12/25 02:10:19;;;;;;;12.50;5.57;;;9.60;99.90;;;;;;5091515;28;20513;-86
2022/12/25 02:12:46;;;;;;;16.33;5.83;;;9.60;99.90;;;;;;5079833;28;20530;-88
2022/12/25 02:15:18;;;;;;;8.00;5.13;;;9.60;99.90;;;;;;5080969;28;20259;-87
2022/12/25 02:17:59;;;;;;;9.70;5.47;;;9.60;1.00;;;;;;5082448;28;20469;-86
2022/12/25 02:20:56;;;;;;;12.53;5.10;;;9.60;1.00;;;;;;5085997;28;20483;-87
2022/12/25 02:23:24;;;;;;;15.03;5.33;;;9.60;1.00;;;;;;5077407;28;21081;-87
2022/12/25 02:26:20;;;;;;;13.57;5.27;;;9.60;1.00;;;;;;5076831;28;20438;-88
2022/12/25 02:28:58;;;;;;;13.70;5.80;;;9.60;1.00;;;;;;5085939;28;20954;-88
2022/12/25 02:31:46;;;;;;;9.27;5.87;;;9.60;1.00;;;;;;5094337;28;20475;-87
2022/12/25 02:34:20;;;;;;;13.97;6.37;;;9.60;1.00;;;;;;5080787;28;20446;-87
2022/12/25 02:36:56;;;;;;;13.00;5.60;;;9.60;1.00;;;;;;5083615;28;20445;-86
2022/12/25 03:06:41;;;;;;;13.03;6.33;;;9.60;1.00;;;;;;5087961;28;20565;-87
2022/12/25 03:07:28;;;;;;;10.47;5.93;;;9.70;1.00;;;;;;5082225;28;20539;-88
2022/12/25 03:12:57;;;;;;;7.00;4.30;;;9.70;1.00;;;;;;5076759;28;20443;-87
2022/12/25 03:18:14;;;;;;;17.47;5.37;;;9.70;1.00;;;;;;5083404;28;20474;-86
2022/12/25 03:28:57;;;;;;;16.77;5.60;;;9.80;1.00;;;;;;5083750;28;20503;-87
2022/12/25 03:31:38;;;;;;;7.40;4.50;;;9.80;1.00;;;;;;5091740;28;20422;-88
2022/12/25 04:36:10;;;;;;;8.83;3.70;;;9.40;1.00;;;;;;5073119;28;20441;-87
2022/12/25 04:38:36;;;;;;;15.30;4.17;;;9.40;1.00;;;;;;5081791;28;20477;-87
2022/12/25 04:41:02;;;;;;;12.13;4.30;;;9.40;1.00;;;;;;5079363;28;20451;-86
2022/12/25 04:43:29;;;;;;;9.13;3.70;;;9.40;1.00;;;;;;5088683;28;20466;-87
2022/12/25 04:45:59;;;;;;;8.90;3.30;;;9.30;1.00;;;;;;5086200;28;20528;-87
2022/12/25 04:48:25;;;;;;;7.90;2.97;;;9.40;1.00;;;;;;5085479;28;20851;-86
2022/12/25 04:50:51;;;;;;;7.77;3.27;;;9.40;1.00;;;;;;5086135;28;20476;-87
2022/12/25 04:53:17;;;;;;;7.23;2.87;;;9.40;1.00;;;;;;5088830;28;20942;-86
2022/12/25 04:55:43;;;;;;;6.10;3.00;;;9.40;1.00;;;;;;5089463;28;21089;-89
2022/12/25 04:58:09;;;;;;;5.37;3.10;;;9.40;1.00;;;;;;5089921;28;20445;-87
2022/12/25 05:00:34;;;;;;;3.77;3.00;;;9.50;1.00;;;;;;5087438;28;20640;-87
2022/12/25 05:03:00;;;;;;;5.40;3.10;;;9.50;1.00;;;;;;5083943;28;20196;-86
2022/12/25 05:05:26;;;;;;;7.17;2.70;;;9.50;1.00;;;;;;5087208;28;20262;-87
2022/12/25 05:07:51;;;;;;;10.27;4.37;;;9.50;1.00;;;;;;5081834;28;20215;-87
2022/12/25 05:10:17;;;;;;;4.97;3.03;;;9.60;1.00;;;;;;5084818;28;20241;-87
2022/12/25 05:12:43;;;;;;;7.10;3.47;;;9.50;1.00;;;;;;5093375;28;20180;-88
2022/12/25 05:15:08;;;;;;;8.57;4.57;;;9.50;1.00;;;;;;5091153;28;20180;-88
2022/12/25 05:17:34;;;;;;;4.63;2.50;;;9.50;1.00;;;;;;5084212;28;20710;-89
2022/12/25 05:20:00;;;;;;;8.83;3.50;;;9.40;1.00;;;;;;5083725;28;20434;-88
2022/12/25 05:22:25;;;;;;;11.13;3.30;;;9.40;1.00;;;;;;5085131;28;20652;-87
2022/12/25 05:24:51;;;;;;;7.33;3.10;;;9.40;1.00;;;;;;5080511;28;20264;-86
2022/12/25 05:27:16;;;;;;;5.70;2.87;;;9.40;1.00;;;;;;5076633;28;20632;-87
2022/12/25 05:29:42;;;;;;;8.00;2.90;;;9.40;1.00;;;;;;5084281;28;20172;-87
2022/12/25 05:32:08;;;;;;;8.43;3.07;;;9.40;1.00;;;;;;5095088;28;20179;-87
2022/12/25 05:34:33;;;;;;;10.03;3.23;;;9.30;1.00;;;;;;5076468;28;20219;-87
2022/12/25 05:36:59;;;;;;;10.53;2.67;;;9.30;1.00;;;;;;5081823;28;20666;-86
2022/12/25 05:39:24;;;;;;;8.50;3.50;;;9.30;1.00;;;;;;5092173;28;20204;-87
2022/12/25 05:41:50;;;;;;;15.93;3.43;;;9.30;1.00;;;;;;5090929;28;20192;-86
2022/12/25 05:44:16;;;;;;;5.77;3.07;;;9.40;1.00;;;;;;5089802;28;20839;-87
2022/12/25 05:46:41;;;;;;;6.53;3.40;;;9.40;1.00;;;;;;5087671;28;20186;-87
2022/12/25 05:49:07;;;;;;;5.07;3.00;;;9.40;1.00;;;;;;5086260;28;20192;-87
2022/12/25 05:51:33;;;;;;;5.37;2.53;;;9.40;1.00;;;;;;5084417;28;20723;-87
2022/12/25 05:53:58;;;;;;;9.50;3.07;;;9.40;1.00;;;;;;5073698;28;20176;-88
2022/12/25 05:56:24;;;;;;;7.00;3.23;;;9.40;1.00;;;;;;5086127;28;20197;-88
2022/12/25 05:58:50;;;;;;;6.10;2.67;;;9.40;1.00;;;;;;5080596;28;20977;-86
2022/12/25 06:01:19;;;;;;;7.37;2.47;;;9.40;1.00;;;;;;5090787;28;20180;-87
2022/12/25 06:03:44;;;;;;;3.47;2.10;;;9.40;1.00;;;;;;5086574;28;20196;-88
2022/12/25 06:06:11;;;;;;;5.00;3.53;;;9.50;1.00;;;;;;5088860;28;20999;-88
2022/12/25 06:08:36;;;;;;;7.53;2.00;;;9.50;1.00;;;;;;5076167;28;20240;-87
2022/12/25 06:11:04;;;;;;;4.40;2.40;;;9.50;1.00;;;;;;5085585;28;20438;-88
2022/12/25 06:13:30;;;;;;;7.30;3.10;;;9.60;1.00;;;;;;5091238;28;20550;-90
2022/12/25 06:15:56;;;;;;;6.87;2.73;;;9.60;1.00;;;;;;5079160;28;20427;-87
2022/12/25 06:18:21;;;;;;;5.80;2.87;;;9.60;1.00;;;;;;5100153;28;20453;-87
2022/12/25 06:20:47;;;;;;;6.83;3.23;;;9.70;1.00;;;;;;5091531;28;20176;-87
2022/12/25 06:23:12;;;;;;;4.73;3.27;;;9.70;1.00;;;;;;5081677;28;20204;-86
2022/12/25 06:25:39;;;;;;;3.80;2.33;;;9.70;1.00;;;;;;5083927;28;20180;-86
2022/12/25 06:28:05;;;;;;;10.07;2.23;;;9.80;1.00;;;;;;5081107;28;20247;-87
2022/12/25 06:30:31;;;;;;;7.93;2.33;;;9.80;1.00;;;;;;5079768;28;20454;-87
2022/12/25 06:32:58;;;;;;;7.90;2.27;;;9.80;1.00;;;;;;5084746;28;20483;-87
2022/12/25 06:35:24;;;;;;;7.50;2.70;;;9.80;1.00;;;;;;5085339;28;20426;-87
2022/12/25 06:37:49;;;;;;;6.83;2.73;;;9.90;1.00;;;;;;5087191;28;20476;-87
2022/12/25 06:40:15;;;;;;;9.00;2.97;;;9.90;1.00;;;;;;5089555;28;20438;-86
2022/12/25 06:42:41;;;;;;;9.37;2.37;;;9.90;1.00;;;;;;5078528;28;20308;-86
2022/12/25 06:45:07;;;;;;;14.00;3.07;;;9.90;1.00;;;;;;5075745;28;20185;-88
2022/12/25 06:47:32;;;;;;;10.03;3.23;;;9.90;1.00;;;;;;5085161;28;20203;-87
2022/12/25 06:49:58;;;;;;;6.00;2.53;;;9.90;1.00;;;;;;5101225;28;20804;-87
2022/12/25 06:52:23;;;;;;;6.27;2.53;;;9.90;1.00;;;;;;5085791;28;20176;-87
2022/12/25 06:54:49;;;;;;;9.33;3.23;;;9.80;1.00;;;;;;5084066;28;20188;-87
2022/12/25 06:57:14;;;;;;;5.03;2.80;;;9.80;1.00;;;;;;5083047;28;20862;-87
2022/12/25 06:59:40;;;;;;;8.57;3.57;;;9.80;1.00;;;;;;5086101;28;20233;-87
2022/12/25 07:02:16;;;;;;;17.33;5.03;;;9.70;1.00;;;;;;5087746;28;20187;-87
2022/12/25 07:04:42;;;;;;;8.67;3.43;;;9.70;1.00;;;;;;5084353;28;20180;-89
2022/12/25 07:07:08;;;;;;;10.83;3.70;;;9.70;1.00;;;;;;5080883;28;21191;-90
2022/12/25 07:09:34;;;;;;;5.80;3.73;;;9.70;1.00;;;;;;5083266;28;20177;-86
2022/12/25 07:12:12;;;;;;;11.23;4.33;;;9.60;1.00;;;;;;5088090;28;20445;-87
2022/12/25 07:14:38;;;;;;;7.73;3.67;;;9.60;1.00;;;;;;5078324;28;20427;-87
2022/12/25 07:17:04;;;;;;;8.50;3.20;;;9.60;1.00;;;;;;5082723;28;20431;-87
2022/12/25 07:19:29;;;;;;;6.23;3.07;;;9.60;1.00;;;;;;5089822;28;20271;-87
2022/12/25 07:21:55;;;;;;;7.40;3.30;;;9.60;1.00;;;;;;5100418;28;20184;-87
2022/12/25 07:24:22;;;;;;;6.60;3.10;;;9.60;1.00;;;;;;5100848;28;20212;-87
2022/12/25 07:26:51;;;;;;;6.20;3.77;;;9.60;1.00;;;;;;5097062;28;20961;-86
2022/12/25 07:29:18;;;;;;;10.70;3.30;;;9.60;1.00;;;;;;5090615;28;20446;-87
2022/12/25 07:31:53;;;;;;;4.03;2.80;;;9.60;1.00;;;;;;5075560;28;20800;-89
2022/12/25 07:34:19;;;;;;;8.93;2.87;;;9.60;1.00;;;;;;5087823;28;20449;-87
2022/12/25 07:36:45;;;;;;;7.27;3.17;;;9.70;1.00;;;;;;5094156;28;20538;-87
2022/12/25 07:39:15;;;;;;;5.93;2.57;;;9.80;1.00;;;;;;5085366;28;20246;-88
2022/12/25 07:41:44;;;;;;;6.63;2.60;;;9.80;1.00;;;;;;5077071;28;20946;-87
2022/12/25 07:44:10;;;;;;;5.50;2.77;;;9.90;1.00;;;;;;5082152;28;20484;-87
2022/12/25 07:46:47;;;;;;;11.90;3.63;;;9.90;1.00;;;;;;5082045;28;20434;-87
2022/12/25 07:49:13;;;;;;;9.73;3.57;;;10.00;1.00;;;;;;5082219;28;20227;-87
2022/12/25 07:51:44;;;;;;;6.40;3.07;;;10.00;1.00;;;;;;5079722;28;20439;-87
2022/12/25 07:54:19;;;;;;;8.47;3.33;;;10.00;1.00;;;;;;5087325;28;20662;-87
2022/12/25 07:56:51;;;;;;;6.93;2.93;;;10.00;1.00;;;;;;5084924;28;20433;-89
2022/12/25 07:59:20;;;;;;;14.70;6.57;;;10.00;1.00;;;;;;5094691;28;20855;-87
2022/12/25 08:01:52;;;;;;;6.23;4.63;;;10.00;1.00;;;;;;5074593;28;20438;-88
2022/12/25 08:04:29;;;;;;;6.80;3.23;;;10.10;1.00;;;;;;5084078;28;20495;-88
2022/12/25 08:06:57;;;;;;;6.80;3.83;;;10.10;1.00;;;;;;5077327;28;21171;-88
2022/12/25 08:09:28;;;;;;;7.03;3.53;;;10.10;1.00;;;;;;5095092;28;20543;-87
2022/12/25 08:11:54;;;;;;;11.40;4.20;;;10.10;1.00;;;;;;5074148;28;20449;-88
2022/12/25 08:14:26;;;;;;;4.20;2.97;;;10.10;1.00;;;;;;5080709;28;20498;-88
2022/12/25 08:16:57;;;;;;;6.33;4.03;;;10.10;1.00;;;;;;5083503;28;20215;-87
2022/12/25 08:19:26;;;;;;;9.00;3.23;;;10.10;1.00;;;;;;5088505;28;20873;-88
2022/12/25 08:21:52;;;;;;;7.40;2.70;;;10.10;1.00;;;;;;5086462;28;20446;-88
2022/12/25 08:24:23;;;;;;;10.70;3.00;;;10.10;1.00;;;;;;5093111;28;20454;-88
2022/12/25 08:26:55;;;;;;;8.93;3.87;;;10.10;1.00;;;;;;5087567;28;20208;-89
2022/12/25 08:29:20;;;;;;;6.37;3.17;;;10.10;1.00;;;;;;5074713;28;20455;-88
2022/12/25 08:31:52;;;;;;;10.00;3.43;;;10.20;1.00;;;;;;5081811;28;20495;-88
2022/12/25 08:34:18;;;;;;;7.37;2.70;;;10.20;1.00;;;;;;5081352;28;20238;-89
2022/12/25 08:36:54;;;;;;;4.07;2.23;;;10.20;1.00;;;;;;5082595;28;20840;-87
2022/12/25 08:39:24;;;;;;;6.57;2.73;;;10.30;1.00;;;;;;5085901;28;21046;-88
2022/12/25 08:42:06;;;;;;;;;;;;;;;;;;;;;
2022/12/25 08:44:37;;;;;;;9.17;3.10;;;10.40;1.00;;;;;;5090468;28;20448;-88
2022/12/25 08:47:05;;;;;;;13.00;3.00;;;10.40;1.00;;;;;;5083214;28;20420;-87
2022/12/25 08:49:39;;;;;;;10.23;4.93;;;10.40;1.00;;;;;;5108581;28;20457;-87
2022/12/25 08:52:10;;;;;;;10.17;3.67;;;10.40;1.00;;;;;;5092161;28;20455;-88
2022/12/25 08:54:38;;;;;;;9.37;3.43;;;10.40;1.00;;;;;;5076483;28;20422;-88
2022/12/25 08:57:12;;;;;;;10.10;3.50;;;10.30;1.00;;;;;;5105577;28;20419;-88
2022/12/25 08:59:38;;;;;;;7.13;3.00;;;10.40;1.00;;;;;;5095519;28;20505;-87
2022/12/25 09:02:08;;;;;;;13.27;3.60;;;10.40;1.00;;;;;;5091972;28;20520;-88
2022/12/25 09:04:42;;;;;;;13.67;4.87;;;10.40;1.00;;;;;;5100888;28;20226;-88
2022/12/25 09:07:15;;;;;;;8.53;4.90;;;10.40;1.00;;;;;;5084984;28;20917;-88
2022/12/25 09:09:48;;;;;;;14.07;5.00;;;10.40;1.00;;;;;;5085161;28;20423;-88
2022/12/25 09:12:17;;;;;;;8.47;5.77;;;10.40;1.00;;;;;;5088759;28;20433;-88
2022/12/25 09:14:48;;;;;;;9.60;5.30;;;10.40;1.00;;;;;;5085040;28;20450;-88
2022/12/25 09:17:28;;;;;;;10.57;4.60;;;10.50;1.00;;;;;;5077476;28;20430;-87
2022/12/25 09:19:57;;;;;;;17.57;5.20;;;10.50;1.00;;;;;;5076351;28;20438;-87
2022/12/25 09:22:25;;;;;;;11.20;5.77;;;10.50;1.00;;;;;;5086586;28;20414;-89
2022/12/25 09:24:57;;;;;;;7.37;6.17;;;10.50;1.00;;;;;;5083100;28;20938;-88
2022/12/25 09:27:22;;;;;;;12.37;6.40;;;10.50;1.00;;;;;;5077003;28;20466;-87
2022/12/25 09:29:52;;;;;;;11.67;5.37;;;10.60;1.00;;;;;;5087071;28;20462;-88
2022/12/25 09:32:27;;;;;;;4.80;3.77;;;10.60;1.00;;;;;;5089730;28;20225;-87
2022/12/25 09:34:58;;;;;;;5.47;3.80;;;10.60;1.00;;;;;;5083726;28;20434;-87
2022/12/25 09:37:40;;;;;;;5.70;3.70;;;10.60;1.00;;;;;;5083876;28;20431;-87
2022/12/25 09:40:14;;;;;;;13.13;4.10;;;10.60;1.00;;;;;;5084640;28;20546;-87
2022/12/25 09:43:02;;;;;;;8.77;5.60;;;10.50;1.00;;;;;;5081119;28;20527;-91
2022/12/25 09:45:39;;;;;;;7.53;4.33;;;10.50;1.00;;;;;;5076499;28;20428;-87
2022/12/25 09:48:17;;;;;;;5.87;3.87;;;10.50;1.00;;;;;;5080634;28;20451;-87
2022/12/25 09:50:48;;;;;;;13.73;4.53;;;10.60;1.00;;;;;;5090378;28;20438;-88
2022/12/25 09:53:41;;;;;;;8.90;6.20;;;10.60;1.00;;;;;;5078447;28;20565;-87
2022/12/25 09:56:29;;;;;;;15.50;7.80;;;10.50;1.00;;;;;;5101196;28;20421;-87
2022/12/25 09:58:54;;;;;;;14.77;7.00;;;10.50;1.00;;;;;;5090394;28;20462;-86
2022/12/25 10:01:28;;;;;;;12.93;6.87;;;10.50;1.00;;;;;;5101334;27;20518;-86
2022/12/25 10:04:08;;;;;;;10.70;5.20;;;10.50;1.00;;;;;;5094716;28;20576;-87
2022/12/25 10:06:58;;;;;;;7.70;5.07;;;10.50;1.00;;;;;;5091841;28;20474;-87
2022/12/25 10:09:38;;;;;;;8.00;4.63;;;10.60;1.00;;;;;;5080230;28;20447;-87
2022/12/25 10:12:35;;;;;;;10.90;5.60;;;10.60;1.00;;;;;;5112505;27;20501;-87
2022/12/25 10:15:16;;;;;;;11.07;5.20;;;10.60;1.00;;;;;;5091112;28;20941;-87
2022/12/25 10:18:19;;;;;;;8.67;4.37;;;10.70;1.00;;;;;;5084893;28;20453;-88
2022/12/25 10:20:54;;;;;;;13.57;5.17;;;10.60;1.00;;;;;;5090831;28;20431;-87
2022/12/25 10:23:46;;;;;;;7.80;4.70;;;10.60;1.00;;;;;;5090227;28;20464;-87
2022/12/25 10:26:28;;;;;;;7.90;5.20;;;10.60;1.00;;;;;;5089306;28;20874;-85
2022/12/25 10:29:16;;;;;;;7.23;4.53;;;10.60;1.00;;;;;;5082667;28;20453;-88
2022/12/25 10:31:51;;;;;;;9.53;5.40;;;10.60;1.00;;;;;;5080896;28;20778;-88
2022/12/25 10:34:17;;;;;;;8.90;5.10;;;10.70;1.00;;;;;;5100481;27;20525;-87
2022/12/25 10:36:54;;;;;;;8.47;4.53;;;10.70;1.00;;;;;;5088730;28;21006;-87
2022/12/25 10:39:29;;;;;;;12.00;7.40;;;10.70;1.00;;;;;;5080727;28;20208;-88
2022/12/25 10:43:14;;;;;;;12.23;8.17;;;10.70;1.00;;;;;;5086686;28;20457;-85
2022/12/25 10:45:48;;;;;;;12.37;10.03;;;10.80;1.00;;;;;;4998676;28;20469;-89
2022/12/25 10:48:26;;;;;;;12.87;10.30;;;10.90;1.00;;;;;;5078126;28;20666;-87
2022/12/25 10:50:57;;;;;;;12.03;7.80;;;11.00;1.00;;;;;;5081887;28;20813;-86
2022/12/25 10:53:51;;;;;;;11.67;6.87;;;11.10;1.00;;;;;;5082694;28;20509;-87
2022/12/25 10:56:20;;;;;;;12.10;7.87;;;11.10;1.00;;;;;;5075713;28;20435;-85
2022/12/25 10:59:14;;;;;;;9.93;7.60;;;11.00;1.00;;;;;;5079416;28;20901;-88
2022/12/25 11:01:43;;;;;;;8.90;5.17;;;11.00;1.00;;;;;;5083832;28;20429;-88
2022/12/25 11:04:23;;;;;;;20.60;7.33;;;10.90;1.00;;;;;;5081859;28;20861;-85
2022/12/25 11:07:21;;;;;;;10.47;7.33;;;10.90;1.00;;;;;;5110460;28;20965;-89
2022/12/25 11:10:42;;;;;;;12.73;7.10;;;10.90;1.00;;;;;;5101478;28;20415;-86
2022/12/25 11:13:36;;;;;;;13.57;8.50;;;10.90;1.00;;;;;;5083046;28;20942;-89
2022/12/25 11:16:40;;;;;;;11.70;5.97;;;10.90;1.00;;;;;;5077964;28;20435;-88
2022/12/25 11:19:44;;;;;;;9.70;6.03;;;11.00;1.00;;;;;;5082152;28;20463;-88
2022/12/25 11:22:17;;;;;;;8.20;6.23;;;11.00;1.00;;;;;;5036448;28;20431;-88
2022/12/25 11:25:03;;;;;;;11.37;6.10;;;11.00;1.00;;;;;;5073994;28;20519;-88
2022/12/25 11:27:32;;;;;;;9.43;5.53;;;10.90;1.00;;;;;;5068682;28;20848;-87
2022/12/25 11:30:07;;;;;;;10.77;5.80;;;10.90;1.00;;;;;;5084065;28;20475;-88
2022/12/25 11:32:47;;;;;;;7.77;6.57;;;10.90;1.00;;;;;;5084139;28;20465;-87
2022/12/25 11:36:21;;;;;;;;;;;;;;;;;;;;;
2022/12/25 11:38:50;;;;;;;10.10;7.13;;;10.90;1.00;;;;;;5031376;28;20480;-86
2022/12/25 11:41:22;;;;;;;10.20;7.57;;;10.90;1.00;;;;;;5031991;28;20452;-88
2022/12/25 11:44:07;;;;;;;6.60;5.77;;;10.90;1.00;;;;;;5063586;28;20469;-89
2022/12/25 11:46:56;;;;;;;7.33;5.60;;;10.90;1.00;;;;;;5083169;28;20463;-88
2022/12/25 11:49:32;;;;;;;10.07;6.73;;;11.00;1.00;;;;;;5080228;28;20457;-88
2022/12/25 11:52:06;;;;;;;7.80;5.40;;;11.00;1.00;;;;;;5082439;28;20463;-88
2022/12/25 11:54:54;;;;;;;10.20;5.90;;;11.10;1.00;;;;;;5088925;28;20433;-86
2022/12/25 11:57:25;;;;;;;8.10;6.00;;;11.10;1.00;;;;;;5086626;28;20446;-88
2022/12/25 12:00:29;;;;;;;9.73;5.60;;;11.10;1.00;;;;;;5089656;28;20414;-88
2022/12/25 12:03:20;;;;;;;8.10;6.30;;;11.10;1.00;;;;;;5067167;28;20488;-88
2022/12/25 12:06:06;;;;;;;7.53;5.67;;;11.10;1.00;;;;;;5090334;28;20406;-88
2022/12/25 12:08:37;;;;;;;6.57;5.53;;;11.10;1.00;;;;;;5105919;28;20801;-89
2022/12/25 12:11:39;;;;;;;10.20;7.90;;;11.10;1.00;;;;;;5102863;28;20418;-89
2022/12/25 12:14:24;;;;;;;6.93;5.50;;;11.10;1.00;;;;;;5086225;28;20494;-87
2022/12/25 12:16:49;;;;;;;7.97;6.23;;;11.20;1.00;;;;;;5084924;28;20437;-87
2022/12/25 12:19:28;;;;;;;9.90;6.30;;;11.20;1.00;;;;;;5082820;28;20973;-87
2022/12/25 12:22:04;;;;;;;8.80;6.20;;;11.20;1.00;;;;;;5083904;28;20299;-88
2022/12/25 12:25:00;;;;;;;9.67;6.03;;;11.20;1.00;;;;;;5082467;28;20462;-86
2022/12/25 12:27:44;;;;;;;8.53;5.60;;;11.20;1.00;;;;;;5080829;28;20510;-87
2022/12/25 12:30:31;;;;;;;8.60;5.30;;;11.20;1.00;;;;;;5088250;28;20422;-89
2022/12/25 12:33:03;;;;;;;7.70;5.90;;;11.30;1.00;;;;;;5079066;28;20505;-87
2022/12/25 12:35:41;;;;;;;8.93;7.07;;;11.30;1.00;;;;;;5078570;28;20438;-87
2022/12/25 12:38:19;;;;;;;9.30;6.30;;;11.30;1.00;;;;;;5082912;28;20458;-86
2022/12/25 12:41:17;;;;;;;9.50;6.90;;;11.30;1.00;;;;;;5094795;28;20463;-88
2022/12/25 12:44:06;;;;;;;12.30;6.60;;;11.40;1.00;;;;;;5077191;28;20454;-86
2022/12/25 12:47:00;;;;;;;9.13;6.20;;;11.40;1.00;;;;;;5092806;28;20422;-88
2022/12/25 12:49:32;;;;;;;8.63;5.93;;;11.50;1.00;;;;;;5081018;28;20455;-88
2022/12/25 12:52:20;;;;;;;9.87;6.83;;;11.50;1.00;;;;;;5087500;28;20435;-86
2022/12/25 12:55:02;;;;;;;10.00;7.00;;;11.50;1.00;;;;;;5078486;28;20455;-88
2022/12/25 12:57:38;;;;;;;8.93;6.57;;;11.60;1.00;;;;;;5095407;28;20470;-88
2022/12/25 13:00:48;;;;;;;9.03;6.30;;;11.60;1.00;;;;;;5089572;28;20445;-88
2022/12/25 13:03:52;;;;;;;7.97;6.73;;;11.60;1.00;;;;;;5089433;28;20554;-87
2022/12/25 13:07:01;;;;;;;8.70;6.03;;;11.60;1.00;;;;;;5075864;28;20431;-89
2022/12/25 13:09:50;;;;;;;17.13;7.70;;;11.60;1.00;;;;;;5046444;28;20458;-87
2022/12/25 13:12:32;;;;;;;11.17;7.70;;;11.60;1.00;;;;;;5088636;28;20436;-88
2022/12/25 13:15:02;;;;;;;11.80;7.50;;;11.60;1.00;;;;;;5084623;28;20441;-88
2022/12/25 13:20:53;;;;;;;12.53;8.03;;;11.60;1.00;;;;;;5080274;28;20435;-88
2022/12/25 13:23:39;;;;;;;11.37;7.27;;;11.60;1.00;;;;;;5073589;28;20538;-89
2022/12/25 13:26:22;;;;;;;9.33;7.50;;;11.60;1.00;;;;;;5079237;28;20486;-88
2022/12/25 13:28:57;;;;;;;11.27;8.30;;;11.60;1.00;;;;;;5078191;28;20825;-87
2022/12/25 13:31:30;;;;;;;15.57;8.67;;;11.60;1.00;;;;;;5097004;28;20484;-88
2022/12/25 13:34:29;;;;;;;13.40;7.83;;;11.60;1.00;;;;;;5088874;28;20425;-88
2022/12/25 13:37:07;;;;;;;10.00;7.73;;;11.70;1.00;;;;;;5106800;27;20440;-89
2022/12/25 13:39:50;;;;;;;12.87;9.30;;;11.70;1.00;;;;;;5091359;28;20457;-87
2022/12/25 13:42:33;;;;;;;15.53;8.67;;;11.70;1.00;;;;;;5083419;28;20443;-88
2022/12/25 13:45:25;;;;;;;13.23;9.57;;;11.70;1.00;;;;;;5081623;28;20436;-89
2022/12/25 13:47:56;;;;;;;14.27;10.40;;;11.80;1.00;;;;;;5088211;28;20465;-88
2022/12/25 13:54:08;;;;;;;16.43;9.77;;;11.80;1.00;;;;;;5080404;28;20440;-88
2022/12/25 13:56:49;;;;;;;13.00;9.27;;;11.80;1.00;;;;;;5091129;28;20425;-88
2022/12/25 13:59:37;;;;;;;21.80;16.80;;;11.80;1.00;;;;;;5080893;28;20523;-87
2022/12/25 14:02:03;;;;;;;14.80;11.07;;;11.80;1.00;;;;;;5081438;28;20529;-88
2022/12/25 14:04:45;;;;;;;14.43;12.60;;;11.80;1.00;;;;;;5082305;28;20465;-89
2022/12/25 14:07:11;;;;;;;13.60;11.00;;;11.80;1.00;;;;;;5088776;28;20975;-88
2022/12/25 14:09:39;;;;;;;16.87;12.00;;;11.90;1.00;;;;;;5085703;28;20459;-88
2022/12/25 14:12:06;;;;;;;20.87;12.27;;;11.90;1.00;;;;;;5095972;28;20916;-87
2022/12/25 14:14:37;;;;;;;19.23;11.77;;;11.90;1.00;;;;;;5088730;28;20421;-88
2022/12/25 14:17:12;;;;;;;18.40;11.53;;;11.90;1.00;;;;;;5083140;28;20424;-88
2022/12/25 14:22:34;;;;;;;13.80;11.20;;;11.90;1.00;;;;;;5045786;28;20466;-89
2022/12/25 14:25:29;;;;;;;15.50;11.30;;;11.90;1.00;;;;;;5085509;28;20484;-88
2022/12/25 14:28:00;;;;;;;17.60;11.00;;;11.90;1.00;;;;;;5074866;28;20455;-87
2022/12/25 14:30:29;;;;;;;14.70;10.90;;;11.90;1.00;;;;;;5090481;28;20428;-88
2022/12/25 14:33:01;;;;;;;17.50;10.70;;;11.90;1.00;;;;;;5083024;28;21037;-88
2022/12/25 14:38:34;;;;;;;20.30;11.77;;;11.90;1.00;;;;;;5064940;28;20475;-87
2022/12/25 14:41:32;;;;;;;15.20;10.70;;;11.90;1.00;;;;;;5080403;28;20448;-86
2022/12/25 14:44:05;;;;;;;15.30;11.10;;;11.90;1.00;;;;;;5085046;28;20463;-86
2022/12/25 14:46:43;;;;;;;13.80;11.40;;;11.90;1.00;;;;;;5090370;28;20888;-86
2022/12/25 14:49:24;;;;;;;18.13;10.13;;;11.80;1.00;;;;;;5100686;28;20437;-86
2022/12/25 14:51:54;;;;;;;21.60;17.50;;;11.90;1.00;;;;;;5087849;28;20526;-87
2022/12/25 14:54:33;;;;;;;15.53;11.73;;;11.90;1.00;;;;;;5110697;28;20454;-89
2022/12/25 14:57:03;;;;;;;13.50;8.60;;;11.90;1.00;;;;;;5095505;28;20458;-86
2022/12/25 14:59:32;;;;;;;11.30;8.57;;;11.90;1.00;;;;;;5093283;28;20988;-86
2022/12/25 15:02:03;;;;;;;17.23;10.30;;;11.90;1.00;;;;;;5075433;28;20431;-85
2022/12/25 15:04:33;;;;;;;13.37;8.43;;;11.90;1.00;;;;;;5088784;28;20477;-86
2022/12/25 15:07:08;;;;;;;17.50;10.43;;;11.90;1.00;;;;;;5078902;28;20467;-86
2022/12/25 15:09:45;;;;;;;18.50;11.70;;;11.90;1.00;;;;;;5076278;28;20961;-87
2022/12/25 15:12:11;;;;;;;14.40;10.80;;;11.90;1.00;;;;;;5076364;28;20572;-86
2022/12/25 15:14:39;;;;;;;18.90;10.67;;;11.90;1.00;;;;;;5079796;28;20509;-87
2022/12/25 15:17:04;;;;;;;21.70;12.07;;;11.90;1.00;;;;;;5086381;28;20186;-85
2022/12/25 15:19:39;;;;;;;24.57;12.80;;;11.90;1.00;;;;;;5082942;28;20513;-87
2022/12/25 15:22:11;;;;;;;30.50;14.13;;;11.90;1.00;;;;;;5082655;28;20186;-87
2022/12/25 15:24:40;;;;;;;20.53;10.70;;;11.90;1.00;;;;;;5079799;28;20486;-87
2022/12/25 15:27:20;;;;;;;30.77;13.00;;;12.00;1.00;;;;;;5082471;28;20515;-87